Bar 415 Race for Bourbon
Timing and Scoring by Toledo Roadrunners Club

 

PlaceDiv/TotSex/TotTimePaceNameAgeSexCityStateTime
1 1/21 1/62 16:21 5:16 JULIUS KIPTOO 37 M TOLEDO OH 16:21
2 1/16 2/62 16:40 5:22 JASON BUMB 28 M New Riegel OH 16:40
3 2/21 3/62 17:12 5:32 KEVIN EGAN 38 M Toledo OH 17:12
4 3/21 4/62 17:34 5:40 RAFAEL GARCIA 34 M BOWLING OH 17:34
5 4/21 5/62 18:41 6:01 JERRY FLOWERS 33 M TOLEDO OH 18:41
6 1/8 6/62 19:24 6:15 HERMAN BURMEISTER 50 M Toledo OH 19:24
7 1/2 7/62 19:35 6:19 SAM TORRES 62 M Toledo OH 19:35
8 1/45 1/114 19:48 6:23 STEPHANIE EGAN 36 F Toledo OH 19:48
9 1/14 8/62 20:05 6:28 KEVIN BRAMAN 41 M Adrian MI 20:05
10 2/14 9/62 20:13 6:31 SCOTT FORSYTHE 47 M Toledo OH 20:13
11 1/30 2/114 20:42 6:40 SAMANTHA HASSAN 22 F New Rigel OH 20:42
12 1/26 3/114 20:46 6:41 MICHELLE BROOKS 47 F Sylvania OH 20:46
13 5/21 10/62 20:58 6:45 NATE THOMPSON 33 M Whitehouse OH 20:58
14 6/21 11/62 21:27 6:55 JIM SUTTO 39 M WATERVILLE OH 21:27
15 3/14 12/62 21:30 6:56 STEVE SWARTZ 44 M TOLEDO OH 21:30
16 2/26 4/114 21:33 6:57 JENNY VARTANIAN 44 F TOLEDO OH 21:33
17 2/45 5/114 21:35 6:57 KELLY NEUNDORFER 35 F Monclova OH 21:35
18 3/26 6/114 21:46 7:01 TAMMY BENGALA 42 F TOLEDO OH 21:46
19 2/30 7/114 22:28 7:14 KRISTA BALWINSKI 29 F Perrysburg OH 22:28
20 3/45 8/114 22:28 7:14 JORDAN ATHERINE 30 F WATERVILLE OH 22:28
21 2/16 13/62 22:33 7:16 JACOB SHINGLETON 26 M Monroe MI 22:33
22 7/21 14/62 22:33 7:16 SCOTT ONDO 34 M Swanton OH 22:33
23 3/16 15/62 22:46 7:20 KYLE DANICKE 24 M Toledo OH 22:46
24 4/14 16/62 22:57 7:24 NICHOLAS OTERSEN 41 M Sylvania OH 22:57
25 4/16 17/62 23:02 7:25 KEVIN HEIER 27 M Liberty Center OH 23:02
26 2/8 18/62 23:16 7:30 GREGORY PRINCE 57 M Ottawa Hills OH 23:16
27 8/21 19/62 23:22 7:31 NICHOLAS CORESSEL 30 M Toledo OH 23:22
28 9/21 20/62 23:24 7:32 RION MYERS 36 M Liberty Center OH 23:24
29 5/14 21/62 23:34 7:35 MATT ROSE 40 M Toledo OH 23:34
30 10/21 22/62 23:35 7:36 JOHN MCMANUS 34 M Toledo OH 23:35
31 4/45 9/114 23:44 7:39 KIMBERLY JONES 34 F Defiance OH 23:44
32 11/21 23/62 23:50 7:41 IAN ROBERTSON 33 M TOLEDO OH 23:50
33 1/11 10/114 24:03 7:45 PATRICIA RAPP 51 F sylvania OH 24:03
34 3/8 24/62 24:06 7:46 TOM KOLENA 56 M Toledo OH 24:06
35 12/21 25/62 24:13 7:48 TROY STOKES 36 M toledo OH 24:13
36 4/8 26/62 24:15 7:49 STEPHEN BARRY 55 M Sylvania OH 24:15
37 2/11 11/114 24:21 7:51 KATHY STEWART 57 F Lambertville MI 24:21
38 5/45 12/114 24:23 7:51 NANCY KOZSEY 32 F TOLEDO OH 24:23
39 4/26 13/114 24:33 7:54 HOLLY OLIN 40 F Detroit MI 24:33
40 6/45 14/114 24:44 7:58 AILEEN MEYER 36 F Defiance OH 24:44
41 13/21 27/62 24:54 8:01 AARON MYERS 39 M Toledo OH 24:54
42 7/45 15/114 24:56 8:02 NICOLE HANCOCK 31 F Defiance OH 24:56
43 5/16 28/62 25:05 8:05 NICHOLAS HUGUELET 29 M Canton MI 25:05
44 6/16 29/62 25:22 8:10 ANDREW DECKER 28 M Maumee OH 25:22
45 14/21 30/62 25:24 8:11 MARK BUCKENMEYER 34 M SWANTON OH 25:24
46 8/45 16/114 25:24 8:11 JEN HILDEBRAND 35 F Waterville OH 25:24
47 5/26 17/114 25:34 8:14 DENISE DASHNER 44 F Temperance MI 25:34
48 5/8 31/62 25:37 8:15 DOMINGO VALADEZ 55 M Temperance MI 25:37
49 7/16 32/62 25:45 8:18 JACOB PIETRASZAK 26 M sylvania OH 25:45
50 15/21 33/62 25:51 8:20 ANDREA ADAMS 39 M BOWLING OH 25:51

Bar 415 Race for Bourbon
Timing and Scoring by Toledo Roadrunners Club

 

PlaceDiv/TotSex/TotTimePaceNameAgeSexCityStateTime
51 9/45 18/114 25:58 8:22 MEGAN GARDAM 37 F Toledo OH 25:58
52 3/30 19/114 26:05 8:24 KELLY DANICKE 25 F Toledo OH 26:05
53 4/30 20/114 26:09 8:25 BRADLEY ASBURY 23 F Toledo OH 26:09
54 6/14 34/62 26:23 8:30 MARK ZIELINSKI 43 M WATERVILLE OH 26:23
55 6/26 21/114 26:23 8:30 LETHA ZIELINSKI 41 F WATERVILLE OH 26:23
56 3/11 22/114 26:29 8:32 EVA ALGARIN 52 F Oregon OH 26:29
57 5/30 23/114 26:30 8:32 SARAH GIDICH 28 F Sylvania OH 26:30
58 10/45 24/114 26:35 8:34 CHERYL THOMPSON 35 F Whitehouse OH 26:35
59 11/45 25/114 27:05 8:43 NICOLE SOTTILE 34 F TEMPERANCE MI 27:05
60 6/8 35/62 27:07 8:44 TED ROUSOS 56 M Toledo OH 27:07
61 4/11 26/114 27:17 8:47 MARIANNA FORTRESS 56 F Perrysburg OH 27:17
62 12/45 27/114 27:31 8:52 RACHEL STEPHENSON 33 F perrysburg OH 27:31
63 7/14 36/62 27:32 8:52 ADAM RICHARDSON 44 M morenci MI 27:32
64 5/11 28/114 27:33 8:52 LAURIE GADUS 52 F Oregon OH 27:33
65 13/45 29/114 27:42 8:55 SHELLY LEDYARD 31 F Wauseon OH 27:42
66 7/26 30/114 27:43 8:56 CHRIS WLENDZAK 43 F OREGON OH 27:43
67 8/16 37/62 27:52 8:59 KYLE SCHLAGHECK 25 M Holland OH 27:52
68 6/30 31/114 27:53 8:59 ALEXIS JOHNSON 23 F Holland OH 27:53
69 6/11 32/114 27:58 9:00 ANNETTE ROUSOS 50 F Toledo OH 27:58
70 7/30 33/114 27:58 9:01 CHELSEY KANIPE 22 F Monroe MI 27:58
71 9/16 38/62 28:06 9:03 TONY DANICKE 29 M Toledo OH 28:06
72 8/30 34/114 28:10 9:04 AMANDA PIETRASZAK 24 F HOLLAND OH 28:10
73 9/30 35/114 28:14 9:05 AMANDA SHINGLETON 26 F Monroe MI 28:14
74 8/14 39/62 28:16 9:06 BRYAN DANICKE 48 M Toledo OH 28:16
75 2/2 40/62 28:19 9:07 GEORGE HO 63 M Oregon OH 28:19
76 8/26 36/114 28:21 9:08 KIMBERLY BACON 48 F oregon OH 28:21
77 16/21 41/62 28:23 9:08 BRIAN HAMMER 34 M Bowling green OH 28:23
78 9/26 37/114 28:44 9:15 KARA YOKUM 45 F WATERVILLE OH 28:44
79 9/14 42/62 28:53 9:18 SCOTT PRIGGE 47 M Waterville OH 28:53
80 14/45 38/114 29:09 9:23 SARA STOCKWELL 36 F Perrysburg OH 29:09
81 15/45 39/114 29:10 9:23 SARA JONES 33 F Holland OH 29:10
82 10/26 40/114 29:20 9:27 TAUSHA MOORE 40 F SYLVANIA OH 29:20
83 10/30 41/114 29:23 9:28 LAURA DROUILLARD 28 F Sylvania OH 29:23
84 11/30 42/114 29:28 9:29 THERESA ROOT 28 F Swanton OH 29:28
85 12/30 43/114 29:33 9:31 TARA DAILEY 28 F Holland OH 29:33
86 16/45 44/114 29:59 9:39 JAMIE SQUIBB 35 F Sylvania OH 29:59
87 10/14 43/62 30:06 9:41 JOE CLARK 47 M OTTAWA LAKE MI 30:06
88 13/30 45/114 30:10 9:43 SARAH BEDDOES 25 F Toledo OH 30:10
89 17/45 46/114 30:28 9:49 SOMLAK DURIS 34 F Oregon OH 30:28
90 7/11 47/114 30:36 9:51 BARB KESSELMAYER 54 F Toledo OH 30:36
91 10/16 44/62 30:38 9:52 MATT TAYLOR 25 M HOLLAND OH 30:38
92 14/30 48/114 30:43 9:54 JENNA TURCO 25 F Northwood OH 30:43
93 17/21 45/62 31:01 9:59 PHILLIP CARLISLE 32 M Perrysburg OH 31:01
94 18/45 49/114 31:02 10:00 MARLA CARLISLE 32 F Perrysburg OH 31:02
95 11/14 46/62 31:03 10:00 MATT FREEMAN 41 M Lambertville MI 31:03
96 11/16 47/62 31:08 10:02 JUSTIN BUCK 29 M Charlotte NC 31:08
97 15/30 50/114 31:19 10:05 COURTNEY BOOS 28 F Lambertville MI 31:19
98 16/30 51/114 31:21 10:06 ALYSSA PITCHFORD 27 F Liberty Center OH 31:21
99 19/45 52/114 31:25 10:07 TRACI BRANCH 37 F Toledo OH 31:25
100 11/26 53/114 31:34 10:10 MARY DEWITT 44 F Weston OH 31:34

Bar 415 Race for Bourbon
Timing and Scoring by Toledo Roadrunners Club

 

PlaceDiv/TotSex/TotTimePaceNameAgeSexCityStateTime
101 12/26 54/114 31:43 10:13 KERRY COLLEY 45 F Temperance MI 31:43
102 17/30 55/114 31:48 10:15 ASHLEY RICHARDSON 27 F Maumee OH 31:48
103 18/30 56/114 31:49 10:15 RACHEL ADE 29 F Toledo OH 31:49
104 18/21 48/62 31:52 10:16 JIM OBERHAUSER 30 M Delta OH 31:52
105 19/21 49/62 31:53 10:16 TIM MCSTAY 38 M Oregon OH 31:53
106 13/26 57/114 31:53 10:16 JENNIFER BOSTLEMAN 49 F Sylvania OH 31:53
107 8/11 58/114 32:14 10:23 TAMI DANICKE 51 F Toledo OH 32:14
108 20/21 50/62 32:16 10:23 DAVID SELL 36 M Holland OH 32:16
109 21/21 51/62 32:18 10:24 JAY WEAVER 32 M Waterville OH 32:18
110 20/45 59/114 32:19 10:25 JENNIFER ALLEN 34 F toledo OH 32:19
111 21/45 60/114 32:20 10:25 TABATHA WEAVER 35 F Waterville OH 32:20
112 12/16 52/62 32:20 10:25 MICKEY MCGUIRE 28 M TOLEDO OH 32:20
113 9/11 61/114 32:27 10:27 KATHY COSTIC 52 F Toledo OH 32:27
114 10/11 62/114 32:27 10:27 RHONDA MONTAGUE 52 F McComb OH 32:27
115 14/26 63/114 32:31 10:28 KELLEE LASER 45 F perrysburg OH 32:31
116 12/14 53/62 32:31 10:28 ROB CONLEY 40 M perrysburg OH 32:31
117 11/11 64/114 32:35 10:29 LISA KELLER 51 F Oregon OH 32:35
118 19/30 65/114 32:38 10:31 PATRICIA LOBO 29 F PERRYSBURG OH 32:38
119 7/8 54/62 32:41 10:32 JEFF KOENIGSEKER 50 M TOLEDO OH 32:41
120 22/45 66/114 32:42 10:32 JAMIE DICKMAN 31 F Perrysburg OH 32:42
121 23/45 67/114 32:47 10:33 NIKI GRIFFIN 31 F Toledo OH 32:47
122 15/26 68/114 33:13 10:42 SENECA BOWERS 45 F Erie MI 33:13
123 16/26 69/114 33:14 10:42 CAREY MANDERS 48 F Toledo OH 33:14
124 20/30 70/114 33:23 10:45 DANIELLE PIETRASZAK 25 F sylvania OH 33:23
125 1/1 55/62 33:26 10:46 JEROME TOMC 71 M Toledo OH 33:26
126 24/45 71/114 33:33 10:48 AMANDA BROWN 34 F Toledo OH 33:33
127 25/45 72/114 33:37 10:50 ROBLYN SKIBINSKI 37 F toledo OH 33:37
128 26/45 73/114 33:38 10:50 KATE KOESTER 34 F Toledo OH 33:38
129 21/30 74/114 34:48 11:12 ASHLEY HEARST 26 F Deerfield MI 34:48
130 22/30 75/114 34:48 11:12 KARIE STARKEY 27 F Toledo OH 34:48
131 27/45 76/114 34:54 11:14 KENDRA RODRIGUEZ 33 F Toledo OH 34:54
132 28/45 77/114 34:55 11:15 JODY HARTZELL 38 F Perrysburg OH 34:55
133 17/26 78/114 35:02 11:17 NANCY WAMER 43 F Oregon OH 35:02
134 23/30 79/114 35:05 11:18 ABBEY SCHELL 27 F Toledo OH 35:05
135 24/30 80/114 35:06 11:18 SANDRA ANDERSON 28 F Perrysburg OH 35:06
136 25/30 81/114 35:09 11:19 KATIE SLIWINSKI 29 F Toledo OH 35:09
137 29/45 82/114 35:14 11:21 JODI HARDING 30 F Maumee OH 35:14
138 30/45 83/114 35:18 11:22 BRENDA OBERHAUSER 31 F Delta OH 35:18
139 26/30 84/114 35:18 11:22 MOLY POPE 26 F Toledo OH 35:18
140 13/16 56/62 35:18 11:22 ALEXANDER POPE 28 M Toledo OH 35:18
141 31/45 85/114 35:21 11:23 JEN SORGENFREI 34 F Toledo OH 35:21
142 18/26 86/114 35:43 11:30 MICHELLE MOSINIAK 47 F Curtice OH 35:43
143 19/26 87/114 35:45 11:31 HEIDI CLAYTON 40 F Toledo OH 35:45
144 32/45 88/114 35:47 11:31 RACHEL SHOEMAKER 35 F Toledo OH 35:47
145 20/26 89/114 35:49 11:32 KRISTY VALLEROY 42 F Northwood OH 35:49
146 33/45 90/114 36:09 11:38 MARY SLIWINSKI 32 F Toledo OH 36:09
147 34/45 91/114 36:15 11:40 ASHLEY ROBERTSON 30 F TOLEDO OH 36:15
148 27/30 92/114 36:15 11:40 SARA MCGUIRE 27 F TOLEDO OH 36:15
149 35/45 93/114 36:20 11:42 CONSTANCE CARLISLE 37 F Toledo OH 36:20
150 21/26 94/114 36:27 11:44 KATHLEEN REED WILLIAMS 48 F Millbury OH 36:27

Bar 415 Race for Bourbon
Timing and Scoring by Toledo Roadrunners Club

 

PlaceDiv/TotSex/TotTimePaceNameAgeSexCityStateTime
151 22/26 95/114 37:03 11:56 KAMARIA PARKER 40 F Toledo OH 37:03
152 36/45 96/114 37:19 12:01 MICHELLE TAYLOR 30 F HOLLAND OH 37:19
153 14/16 57/62 37:36 12:06 JOHN RIDDLE 24 M Monroe MI 37:36
154 28/30 97/114 37:43 12:09 FRANCESCA DECKER 27 F Maumee OH 37:43
155 29/30 98/114 38:06 12:16 CAITLIN SAPP 27 F Sylvania OH 38:06
156 37/45 99/114 38:09 12:17 HEATHER PODDANY 31 F Oregon OH 38:09
157 15/16 58/62 38:15 12:19 BRENDAN BUCKLEY 28 M Northwood OH 38:15
158 23/26 100/114 38:31 12:24 JEN CHAMOUN 42 F Toledo OH 38:31
159 38/45 101/114 38:32 12:24 CODI DOWE 34 F Temperance MI 38:32
160 24/26 102/114 39:12 12:38 JANICE NAVEKEN 48 F toledo OH 39:12
161 1/2 103/114 39:45 12:48 DENISE REX 60 F Toledo OH 39:45
162 39/45 104/114 39:52 12:50 NEKIESHA TAYLOR 34 F Toledo OH 39:52
163 40/45 105/114 39:56 12:52 AMANDA SALDIVAR 34 F Toledo OH 39:56
164 13/14 59/62 41:42 13:26 TODD DOWE 40 M Temperance MI 41:42
165 41/45 106/114 42:24 13:39 J'VANN WINFIELD 32 F Holland OH 42:24
166 14/14 60/62 44:01 14:10 ALI CHAMOUN 45 M Toledo OH 44:01
167 8/8 61/62 45:03 14:30 RICK MORRIN 51 M TOLEDO OH 45:03
168 42/45 107/114 46:00 14:49 CARLY DRAEGER 30 F Toledo OH 46:00
169 2/2 108/114 46:10 14:52 JOYCE DASHNER 67 F Temperance MI 46:10
170 43/45 109/114 48:18 15:33 SARAH SWEET 31 F Liberty Center OH 48:18
171 25/26 110/114 50:16 16:11 KRISTI MONTAGUE 45 F maumee OH 50:16
172 44/45 111/114 55:55 18:00 KRISTY SIMS 30 F toledo OH 55:55
173 26/26 112/114 55:55 18:00 SHARON SNYDER 49 F sylvania OH 55:55
174 16/16 62/62 55:58 18:01 RICHARD ROSCOE 25 M TOLEDO OH 55:58
175 30/30 113/114 56:07 18:04 ELISE ROSCOE 27 F Toledo OH 56:07
176 45/45 114/114 56:09 18:05 KELLYROSE GALENSKI 38 F Sylvania OH 56:09

 

********** AWARDS LIST **************

********** FEMALE OVERALL RESULTS ***********

1 STEPHANIE EGAN 36 Toledo OH 19:48

********** MALE OVERALL RESULTS ***********

1 JULIUS KIPTOO 37 TOLEDO OH 16:21

********** FEMALE MASTERS RESULTS ***********

1 MICHELLE BROOKS 47 Sylvania OH 20:46

********** MALE MASTERS RESULTS ***********

1 HERMAN BURMEISTER 50 Toledo OH 19:24

FEMALE AGE GROUP 21 - 29

1 11 SAMANTHA HASSAN 22 New Rigel OH 20:42
2 19 KRISTA BALWINSKI 29 Perrysburg OH 22:28
3 52 KELLY DANICKE 25 Toledo OH 26:05
4 53 BRADLEY ASBURY 23 Toledo OH 26:09
5 57 SARAH GIDICH 28 Sylvania OH 26:30

MALE AGE GROUP 21 - 29

1 2 JASON BUMB 28 New Riegel OH 16:40
2 21 JACOB SHINGLETON 26 Monroe MI 22:33
3 23 KYLE DANICKE 24 Toledo OH 22:46
4 25 KEVIN HEIER 27 Liberty Center OH 23:02
5 43 NICHOLAS HUGUELET 29 Canton MI 25:05

FEMALE AGE GROUP 30 - 39

1 17 KELLY NEUNDORFER 35 Monclova OH 21:35
2 20 JORDAN ATHERINE 30 WATERVILLE OH 22:28
3 31 KIMBERLY JONES 34 Defiance OH 23:44
4 38 NANCY KOZSEY 32 TOLEDO OH 24:23
5 40 AILEEN MEYER 36 Defiance OH 24:44

MALE AGE GROUP 30 - 39

1 3 KEVIN EGAN 38 Toledo OH 17:12
2 4 RAFAEL GARCIA 34 BOWLING OH 17:34
3 5 JERRY FLOWERS 33 TOLEDO OH 18:41
4 13 NATE THOMPSON 33 Whitehouse OH 20:58
5 14 JIM SUTTO 39 WATERVILLE OH 21:27

FEMALE AGE GROUP 40 - 49

1 16 JENNY VARTANIAN 44 TOLEDO OH 21:33
2 18 TAMMY BENGALA 42 TOLEDO OH 21:46
3 39 HOLLY OLIN 40 Detroit MI 24:33
4 47 DENISE DASHNER 44 Temperance MI 25:34
5 55 LETHA ZIELINSKI 41 WATERVILLE OH 26:23

MALE AGE GROUP 40 - 49

1 9 KEVIN BRAMAN 41 Adrian MI 20:05
2 10 SCOTT FORSYTHE 47 Toledo OH 20:13
3 15 STEVE SWARTZ 44 TOLEDO OH 21:30
4 24 NICHOLAS OTERSEN 41 Sylvania OH 22:57
5 29 MATT ROSE 40 Toledo OH 23:34

FEMALE AGE GROUP 50 - 59

1 33 PATRICIA RAPP 51 sylvania OH 24:03
2 37 KATHY STEWART 57 Lambertville MI 24:21
3 56 EVA ALGARIN 52 Oregon OH 26:29
4 61 MARIANNA FORTRESS 56 Perrysburg OH 27:17
5 64 LAURIE GADUS 52 Oregon OH 27:33

MALE AGE GROUP 50 - 59

1 26 GREGORY PRINCE 57 Ottawa Hills OH 23:16
2 34 TOM KOLENA 56 Toledo OH 24:06
3 36 STEPHEN BARRY 55 Sylvania OH 24:15
4 48 DOMINGO VALADEZ 55 Temperance MI 25:37
5 60 TED ROUSOS 56 Toledo OH 27:07

FEMALE AGE GROUP 60 - 69

1 161 DENISE REX 60 Toledo OH 39:45
2 169 JOYCE DASHNER 67 Temperance MI 46:10

MALE AGE GROUP 60 - 69

1 7 SAM TORRES 62 Toledo OH 19:35
2 75 GEORGE HO 63 Oregon OH 28:19

FEMALE AGE GROUP 70 - 99

 

MALE AGE GROUP 70 - 99

1 125 JEROME TOMC 71 Toledo OH 33:26